createdAt,value
2019-04-11T00:00:50.603Z,46.01
2019-04-11T00:01:56.343Z,46.01
2019-04-11T00:03:02.875Z,45.47
2019-04-11T00:04:08.282Z,45.49
2019-04-11T00:05:13.400Z,45.53
2019-04-11T00:06:19.257Z,45.57
2019-04-11T00:07:24.632Z,45.60
2019-04-11T00:08:30.194Z,45.62
2019-04-11T00:09:35.150Z,45.64
2019-04-11T00:10:41.554Z,45.69
2019-04-11T00:11:46.758Z,45.77
2019-04-11T00:12:52.080Z,45.81
2019-04-11T00:13:57.811Z,45.86
2019-04-11T00:15:04.277Z,45.89
2019-04-11T00:16:09.476Z,45.91
2019-04-11T00:17:14.647Z,45.92
2019-04-11T00:18:20.783Z,45.93
2019-04-11T00:19:27.286Z,45.98
2019-04-11T00:20:32.555Z,45.98
2019-04-11T00:21:38.066Z,45.98
2019-04-11T00:22:44.213Z,46.03
2019-04-11T00:23:50.202Z,46.02
2019-04-11T00:24:55.537Z,46.06
2019-04-11T00:26:00.608Z,46.10
2019-04-11T00:27:05.845Z,46.13
2019-04-11T00:28:10.856Z,46.17
2019-04-11T00:29:16.415Z,46.22
2019-04-11T00:30:21.669Z,46.25
2019-04-11T00:31:26.652Z,46.28
2019-04-11T00:32:31.656Z,46.33
2019-04-11T00:33:36.695Z,46.36
2019-04-11T00:34:42.721Z,46.41
2019-04-11T00:35:48.101Z,46.48
2019-04-11T00:36:53.168Z,46.52
2019-04-11T00:37:59.327Z,46.56
2019-04-11T00:39:07.683Z,46.63
2019-04-11T00:40:13.139Z,46.67
2019-04-11T00:41:18.139Z,46.70
2019-04-11T00:42:23.138Z,46.73
2019-04-11T00:43:35.292Z,46.79
2019-04-11T00:44:34.821Z,46.84
2019-04-11T00:45:40.201Z,46.86
2019-04-11T00:46:45.347Z,46.86
2019-04-11T00:47:50.392Z,46.90
2019-04-11T00:48:55.614Z,46.92
2019-04-11T00:50:01.015Z,46.96
2019-04-11T00:51:07.587Z,46.97
2019-04-11T00:52:12.746Z,47.01
2019-04-11T00:53:18.918Z,47.06
2019-04-11T00:54:24.793Z,47.10
2019-04-11T00:55:31.368Z,47.15
2019-04-11T00:56:36.772Z,47.18
2019-04-11T00:57:43.156Z,47.25
2019-04-11T00:58:49.855Z,47.29
2019-04-11T00:59:55.043Z,47.34
2019-04-11T01:01:00.019Z,47.37
2019-04-11T01:02:05.807Z,47.40
2019-04-11T01:03:11.750Z,47.46
2019-04-11T01:04:17.933Z,47.47
2019-04-11T01:05:23.558Z,47.50
2019-04-11T01:06:30.014Z,47.55
2019-04-11T01:07:35.321Z,47.56
2019-04-11T01:08:40.551Z,47.61
2019-04-11T01:09:45.677Z,47.64
2019-04-11T01:10:51.743Z,47.67
2019-04-11T01:11:56.850Z,47.72
2019-04-11T01:13:01.882Z,47.75
2019-04-11T01:14:07.847Z,47.83
2019-04-11T01:15:15.460Z,47.85
2019-04-11T01:16:28.911Z,47.90
2019-04-11T01:17:33.906Z,47.94
2019-04-11T01:18:38.966Z,48.00
2019-04-11T01:19:44.294Z,48.05
2019-04-11T01:20:49.684Z,48.13
2019-04-11T01:21:55.206Z,48.17
2019-04-11T01:23:00.620Z,48.21
2019-04-11T01:24:06.988Z,48.26
2019-04-11T01:25:14.727Z,48.32
2019-04-11T01:26:19.724Z,48.35
2019-04-11T01:27:25.762Z,48.40
2019-04-11T01:28:31.047Z,48.43
2019-04-11T01:29:36.192Z,48.44
2019-04-11T01:30:47.210Z,48.48
2019-04-11T01:31:55.931Z,48.50
2019-04-11T01:33:00.999Z,48.55
2019-04-11T01:34:06.479Z,48.62
2019-04-11T01:35:13.004Z,48.69
2019-04-11T01:36:18.556Z,48.72
2019-04-11T01:37:23.944Z,48.77
2019-04-11T01:38:30.425Z,48.88
2019-04-11T01:39:49.561Z,48.92
2019-04-11T01:40:54.743Z,48.98
2019-04-11T01:42:00.748Z,48.96
2019-04-11T01:43:06.060Z,48.98
2019-04-11T01:44:12.188Z,49.00
2019-04-11T01:45:19.133Z,49.06
2019-04-11T01:46:24.478Z,49.08
2019-04-11T01:47:47.603Z,49.11
2019-04-11T01:49:04.195Z,49.18
2019-04-11T01:50:10.578Z,49.23
2019-04-11T01:51:15.818Z,49.30
2019-04-11T01:52:20.787Z,49.34
2019-04-11T01:53:26.836Z,49.42
2019-04-11T01:54:32.176Z,49.49
2019-04-11T01:55:37.286Z,49.56
2019-04-11T01:56:42.303Z,49.63
2019-04-11T01:57:47.477Z,49.69
2019-04-11T01:58:53.111Z,49.74
2019-04-11T01:59:58.274Z,49.79
2019-04-11T02:01:12.593Z,49.84
2019-04-11T02:02:41.025Z,49.87
2019-04-11T02:04:07.820Z,49.88
2019-04-11T02:05:19.054Z,49.93
2019-04-11T02:06:24.282Z,49.94
2019-04-11T02:07:29.342Z,49.97
2019-04-11T02:08:35.529Z,50.00
2019-04-11T02:09:40.704Z,50.08
2019-04-11T02:10:46.101Z,50.14
2019-04-11T02:11:52.020Z,50.21
2019-04-11T02:12:57.448Z,50.29
2019-04-11T02:14:12.082Z,50.32
2019-04-11T02:15:10.289Z,50.35
2019-04-11T02:16:15.434Z,50.43
2019-04-11T02:17:20.514Z,50.47
2019-04-11T02:18:25.958Z,50.55
2019-04-11T02:19:30.889Z,50.58
2019-04-11T02:20:36.886Z,50.59
2019-04-11T02:21:42.282Z,50.62
2019-04-11T02:22:54.962Z,50.62
2019-04-11T02:24:19.443Z,50.61
2019-04-11T02:25:52.743Z,50.60
2019-04-11T02:27:14.759Z,50.56
2019-04-11T02:28:20.807Z,50.55
2019-04-11T02:29:25.891Z,50.56
2019-04-11T02:30:33.967Z,50.59
2019-04-11T02:31:40.121Z,50.65
2019-04-11T02:32:47.357Z,50.72
2019-04-11T02:33:55.112Z,50.83
2019-04-11T02:35:02.442Z,50.90
2019-04-11T02:36:07.982Z,50.96
2019-04-11T02:37:15.294Z,51.00
2019-04-11T02:38:21.372Z,51.06
2019-04-11T02:39:30.762Z,51.09
2019-04-11T02:40:36.645Z,51.12
2019-04-11T02:41:42.290Z,51.12
2019-04-11T02:42:47.663Z,51.13
2019-04-11T02:43:52.999Z,51.16
2019-04-11T02:45:13.223Z,51.19
2019-04-11T02:46:17.274Z,51.21
2019-04-11T02:47:16.209Z,51.21
2019-04-11T02:48:20.698Z,51.21
2019-04-11T02:49:27.764Z,51.24
2019-04-11T02:50:34.431Z,51.27
2019-04-11T02:51:40.274Z,51.32
2019-04-11T02:52:47.221Z,51.35
2019-04-11T02:53:54.274Z,51.39
2019-04-11T02:55:00.793Z,51.41
2019-04-11T02:56:06.880Z,51.42
2019-04-11T02:57:14.139Z,51.46
2019-04-11T02:58:20.576Z,51.46
2019-04-11T02:59:27.328Z,51.48
2019-04-11T03:00:33.650Z,51.47
2019-04-11T03:01:39.970Z,51.46
2019-04-11T03:02:45.169Z,51.50
2019-04-11T03:03:51.969Z,51.52
2019-04-11T03:04:57.679Z,51.56
2019-04-11T03:06:04.470Z,51.58
2019-04-11T03:07:09.929Z,51.60
2019-04-11T03:08:18.942Z,51.60
2019-04-11T03:09:24.022Z,51.61
2019-04-11T03:10:29.086Z,51.60
2019-04-11T03:11:34.645Z,51.64
2019-04-11T03:12:40.566Z,51.66
2019-04-11T03:13:50.442Z,51.65
2019-04-11T03:15:13.003Z,51.68
2019-04-11T03:16:19.236Z,51.71
2019-04-11T03:17:18.895Z,51.74
2019-04-11T03:18:35.592Z,51.73
2019-04-11T03:19:37.462Z,51.79
2019-04-11T03:20:37.114Z,51.80
2019-04-11T03:21:41.196Z,51.79
2019-04-11T03:22:48.809Z,51.79
2019-04-11T03:23:51.943Z,51.81
2019-04-11T03:24:58.403Z,51.80
2019-04-11T03:26:05.298Z,51.84
2019-04-11T03:27:11.986Z,51.82
2019-04-11T03:28:22.687Z,51.85
2019-04-11T03:29:26.565Z,51.91
2019-04-11T03:30:49.002Z,51.95
2019-04-11T03:33:42.961Z,52.02
2019-04-11T03:35:51.258Z,52.09
2019-04-11T03:37:00.561Z,52.12
2019-04-11T03:37:38.053Z,52.14
2019-04-11T03:38:44.129Z,52.13
2019-04-11T03:39:53.149Z,52.14
2019-04-11T03:40:50.565Z,52.16
2019-04-11T03:41:59.896Z,52.22
2019-04-11T03:43:04.062Z,52.25
2019-04-11T03:44:04.325Z,52.27
2019-04-11T03:45:26.398Z,52.29
2019-04-11T03:46:29.219Z,52.32
2019-04-11T03:47:33.856Z,52.34
2019-04-11T03:48:40.883Z,52.35
2019-04-11T03:49:43.230Z,52.42
2019-04-11T03:50:40.202Z,52.43
2019-04-11T03:51:47.878Z,52.43
2019-04-11T03:52:53.914Z,52.51
2019-04-11T03:54:01.077Z,52.50
2019-04-11T03:55:08.328Z,52.53
2019-04-11T03:56:14.110Z,52.57
2019-04-11T03:57:21.505Z,52.59
2019-04-11T03:58:29.230Z,52.61
2019-04-11T03:59:36.601Z,52.64
2019-04-11T04:00:43.975Z,52.66
2019-04-11T04:01:50.646Z,52.67
2019-04-11T04:02:57.595Z,52.69
2019-04-11T04:04:03.402Z,52.70
2019-04-11T04:05:10.606Z,52.74
2019-04-11T04:06:16.979Z,52.77
2019-04-11T04:07:24.243Z,52.80
2019-04-11T04:08:31.318Z,52.82
2019-04-11T04:09:37.392Z,52.83
2019-04-11T04:11:04.027Z,52.84
2019-04-11T04:12:11.409Z,52.89
2019-04-11T04:13:18.965Z,52.87
2019-04-11T04:14:30.534Z,52.93
2019-04-11T04:16:09.922Z,52.97
2019-04-11T04:17:35.911Z,53.03
2019-04-11T04:18:52.185Z,53.08
2019-04-11T04:20:29.069Z,53.10
2019-04-11T04:21:43.784Z,53.10
2019-04-11T04:23:07.628Z,53.10
2019-04-11T04:24:37.870Z,53.11
2019-04-11T04:25:42.766Z,53.17
2019-04-11T04:26:48.464Z,53.32
2019-04-11T04:27:54.704Z,53.40
2019-04-11T04:29:02.094Z,53.47
2019-04-11T04:30:08.610Z,53.50
2019-04-11T04:31:16.268Z,53.50
2019-04-11T04:32:23.217Z,53.54
2019-04-11T04:33:30.640Z,53.53
2019-04-11T04:34:36.703Z,53.53
2019-04-11T04:35:42.926Z,53.55
2019-04-11T04:36:49.692Z,53.58
2019-04-11T04:37:56.940Z,53.60
2019-04-11T04:39:04.190Z,53.62
2019-04-11T04:40:31.214Z,53.64
2019-04-11T04:41:30.980Z,53.69
2019-04-11T04:42:33.312Z,53.71
2019-04-11T04:43:36.509Z,53.72
2019-04-11T04:44:42.899Z,53.76
2019-04-11T04:46:03.384Z,53.78
2019-04-11T04:47:09.191Z,53.80
2019-04-11T04:48:07.271Z,53.83
2019-04-11T04:49:09.163Z,53.82
2019-04-11T04:50:14.869Z,53.83
2019-04-11T04:51:20.674Z,53.83
2019-04-11T04:52:28.042Z,53.82
2019-04-11T04:53:35.015Z,53.85
2019-04-11T04:54:41.005Z,53.87
2019-04-11T04:55:47.854Z,53.90
2019-04-11T04:56:54.515Z,53.94
2019-04-11T04:58:00.271Z,53.93
2019-04-11T04:59:07.101Z,53.99
2019-04-11T05:00:14.852Z,54.02
2019-04-11T05:01:21.743Z,54.08
2019-04-11T05:02:28.241Z,54.07
2019-04-11T05:03:34.602Z,54.10
2019-04-11T05:04:40.313Z,54.14
2019-04-11T05:05:46.550Z,54.14
2019-04-11T05:06:52.928Z,54.16
2019-04-11T05:08:00.422Z,54.15
2019-04-11T05:09:06.744Z,54.16
2019-04-11T05:10:13.455Z,54.16
2019-04-11T05:11:18.690Z,54.16
2019-04-11T05:12:23.632Z,54.15
2019-04-11T05:13:30.218Z,54.12
2019-04-11T05:14:37.229Z,54.08
2019-04-11T05:15:43.583Z,54.04
2019-04-11T05:16:50.416Z,54.08
2019-04-11T05:17:55.683Z,54.07
2019-04-11T05:19:04.520Z,54.13
2019-04-11T05:20:09.864Z,54.20
2019-04-11T05:21:14.974Z,54.20
2019-04-11T05:22:19.929Z,54.21
2019-04-11T05:23:25.501Z,54.20
2019-04-11T05:24:30.677Z,54.19
2019-04-11T05:25:36.955Z,54.14
2019-04-11T05:26:42.192Z,54.09
2019-04-11T05:27:47.577Z,54.04
2019-04-11T05:28:53.020Z,53.97
2019-04-11T05:29:58.495Z,53.90
2019-04-11T05:31:03.845Z,53.85
2019-04-11T05:32:09.436Z,53.80
2019-04-11T05:33:14.833Z,53.82
2019-04-11T05:34:20.278Z,53.76
2019-04-11T05:35:25.314Z,53.76
2019-04-11T05:36:30.498Z,53.81
2019-04-11T05:37:36.341Z,53.78
2019-04-11T05:38:42.216Z,53.76
2019-04-11T05:39:48.233Z,53.75
2019-04-11T05:40:54.458Z,53.78
2019-04-11T05:41:59.723Z,53.86
2019-04-11T05:43:05.902Z,53.80
2019-04-11T05:44:11.055Z,53.77
2019-04-11T05:45:20.855Z,53.71
2019-04-11T05:46:31.088Z,53.62
2019-04-11T05:47:29.811Z,53.56
2019-04-11T05:48:43.786Z,53.44
2019-04-11T05:50:06.505Z,53.27
2019-04-11T05:51:10.935Z,53.24
2019-04-11T05:52:16.093Z,53.12
2019-04-11T05:53:21.426Z,53.03
2019-04-11T05:54:28.585Z,52.93
2019-04-11T05:55:41.352Z,52.79
2019-04-11T05:56:48.709Z,52.73
2019-04-11T05:57:52.425Z,52.66
2019-04-11T05:59:02.222Z,52.51
2019-04-11T06:00:09.690Z,52.49
2019-04-11T06:01:24.283Z,52.36
2019-04-11T06:02:51.788Z,52.26
2019-04-11T06:04:00.306Z,52.18
2019-04-11T06:05:33.202Z,52.10
2019-04-11T06:07:01.614Z,52.07
2019-04-11T06:08:09.899Z,51.98
2019-04-11T06:09:20.899Z,51.87
2019-04-11T06:10:46.490Z,51.78
2019-04-11T06:12:11.670Z,51.49
2019-04-11T06:13:20.469Z,51.38
2019-04-11T06:14:33.301Z,51.44
2019-04-11T06:15:43.654Z,51.38
2019-04-11T06:16:54.046Z,51.30
2019-04-11T06:17:56.853Z,51.24
2019-04-11T06:19:30.480Z,51.15
2019-04-11T06:20:45.214Z,51.06
2019-04-11T06:21:53.441Z,50.94
2019-04-11T06:23:17.806Z,50.96
2019-04-11T06:24:44.722Z,50.90
2019-04-11T06:26:18.852Z,50.75
2019-04-11T06:27:49.525Z,50.60
2019-04-11T06:28:59.197Z,50.51
2019-04-11T06:30:44.106Z,50.39
2019-04-11T06:32:14.471Z,50.31
2019-04-11T06:33:30.014Z,50.22
2019-04-11T06:34:38.070Z,50.14
2019-04-11T06:35:58.411Z,50.02
2019-04-11T06:37:33.992Z,49.97
2019-04-11T06:39:01.187Z,49.93
2019-04-11T06:40:13.397Z,49.91
2019-04-11T06:41:36.892Z,49.87
2019-04-11T06:42:47.716Z,49.79
2019-04-11T06:44:04.839Z,49.77
2019-04-11T06:45:27.972Z,49.69
2019-04-11T06:46:55.793Z,49.70
2019-04-11T06:48:13.613Z,49.63
2019-04-11T06:49:26.615Z,49.57
2019-04-11T06:50:43.882Z,49.57
2019-04-11T06:51:56.751Z,49.58
2019-04-11T06:53:02.361Z,49.52
2019-04-11T06:54:21.078Z,49.44
2019-04-11T06:56:01.710Z,49.38
2019-04-11T06:57:10.483Z,49.35
2019-04-11T06:58:23.430Z,49.30
2019-04-11T06:59:32.856Z,49.33
2019-04-11T07:00:41.049Z,49.31
2019-04-11T07:01:47.604Z,49.32
2019-04-11T07:02:55.764Z,49.32
2019-04-11T07:04:05.061Z,49.26
2019-04-11T07:05:10.790Z,49.19
2019-04-11T07:06:19.602Z,49.18
2019-04-11T07:07:28.843Z,49.18
2019-04-11T07:08:40.601Z,49.17
2019-04-11T07:09:57.697Z,49.16
2019-04-11T07:11:05.932Z,49.15
2019-04-11T07:12:24.498Z,49.10
2019-04-11T07:13:37.746Z,49.06
2019-04-11T07:14:47.557Z,49.04
2019-04-11T07:15:55.273Z,49.03
2019-04-11T07:17:18.890Z,49.02
2019-04-11T07:18:41.340Z,48.98
2019-04-11T07:20:04.500Z,48.93
2019-04-11T07:21:11.871Z,48.92
2019-04-11T07:22:36.830Z,48.92
2019-04-11T07:23:59.870Z,48.93
2019-04-11T07:25:22.957Z,48.93
2019-04-11T07:26:31.106Z,48.91
2019-04-11T07:27:36.658Z,48.87
2019-04-11T07:29:04.598Z,48.87
2019-04-11T07:30:27.490Z,48.89
2019-04-11T07:31:58.525Z,48.82
2019-04-11T07:33:22.623Z,48.70
2019-04-11T07:34:45.742Z,48.59
2019-04-11T07:36:08.590Z,48.55
2019-04-11T07:37:28.122Z,48.48
2019-04-11T07:38:41.000Z,48.43
2019-04-11T07:40:17.931Z,48.41
2019-04-11T07:41:43.495Z,48.34
2019-04-11T07:43:13.239Z,48.22
2019-04-11T07:44:17.588Z,48.01
2019-04-11T07:45:29.934Z,47.90
2019-04-11T07:46:53.744Z,47.88
2019-04-11T07:48:07.135Z,47.88
2019-04-11T07:49:12.143Z,47.80
2019-04-11T07:50:19.512Z,47.71
2019-04-11T07:51:29.306Z,47.57
2019-04-11T07:52:39.930Z,47.40
2019-04-11T07:53:48.135Z,47.20
2019-04-11T07:54:55.749Z,47.11
2019-04-11T07:56:03.269Z,46.98
2019-04-11T07:57:12.984Z,46.85
2019-04-11T07:58:27.205Z,46.70
2019-04-11T07:59:55.731Z,46.51
2019-04-11T08:01:19.029Z,46.34
2019-04-11T08:02:53.184Z,46.14
2019-04-11T08:04:20.206Z,45.99
2019-04-11T08:05:50.803Z,45.76
2019-04-11T08:07:28.171Z,45.76
2019-04-11T08:08:41.222Z,45.58
2019-04-11T08:09:50.727Z,45.47
2019-04-11T08:11:15.796Z,45.45
2019-04-11T08:12:23.643Z,45.39
2019-04-11T08:13:34.542Z,45.26
2019-04-11T08:15:02.337Z,45.21
2019-04-11T08:16:26.777Z,45.14
2019-04-11T08:17:40.072Z,45.06
2019-04-11T08:18:50.936Z,45.03
2019-04-11T08:20:15.265Z,45.00
2019-04-11T08:21:48.426Z,44.96
2019-04-11T08:22:57.173Z,44.86
2019-04-11T08:24:04.520Z,44.81
2019-04-11T08:25:29.316Z,44.70
2019-04-11T08:26:59.264Z,44.59
2019-04-11T08:28:09.239Z,44.59
2019-04-11T08:29:15.682Z,44.56
2019-04-11T08:30:22.538Z,44.41
2019-04-11T08:32:05.693Z,44.41
2019-04-11T08:33:10.879Z,44.37
2019-04-11T08:34:17.241Z,44.23
2019-04-11T08:35:44.381Z,44.18
2019-04-11T08:37:07.439Z,44.15
2019-04-11T08:38:18.521Z,44.09
2019-04-11T08:39:37.407Z,44.03
2019-04-11T08:41:01.410Z,43.96
2019-04-11T08:42:39.152Z,43.89
2019-04-11T08:43:45.544Z,43.82
2019-04-11T08:44:52.134Z,43.81
2019-04-11T08:46:07.238Z,43.81
2019-04-11T08:47:14.494Z,43.73
2019-04-11T08:48:19.623Z,43.51
2019-04-11T08:49:32.070Z,43.51
2019-04-11T08:50:40.798Z,43.50
2019-04-11T08:51:46.066Z,43.50
2019-04-11T08:53:06.616Z,42.86
2019-04-11T08:54:40.151Z,43.02
2019-04-11T08:56:00.494Z,42.86
2019-04-11T08:57:04.637Z,42.71
2019-04-11T08:58:22.604Z,42.55
2019-04-11T08:59:53.638Z,42.42
2019-04-11T09:02:16.456Z,42.03
2019-04-11T09:03:44.098Z,42.11
2019-04-11T09:05:13.692Z,42.28
2019-04-11T09:06:18.699Z,42.35
2019-04-11T09:07:29.604Z,42.35
2019-04-11T09:09:00.159Z,41.70
2019-04-11T09:10:24.162Z,41.53
2019-04-11T09:11:33.087Z,41.53
2019-04-11T09:12:40.743Z,41.90
2019-04-11T09:14:08.163Z,41.90
2019-04-11T09:15:45.383Z,41.44
2019-04-11T09:17:01.782Z,40.88
2019-04-11T09:18:12.239Z,40.88
2019-04-11T09:19:37.528Z,40.17
2019-04-11T09:21:04.379Z,39.70
2019-04-11T09:22:28.984Z,39.15
2019-04-11T09:23:35.680Z,38.78
2019-04-11T09:25:15.119Z,38.10
2019-04-11T09:26:38.119Z,37.89
2019-04-11T09:27:44.912Z,37.63
2019-04-11T09:28:53.448Z,37.52
2019-04-11T09:30:02.487Z,37.39
2019-04-11T09:31:42.188Z,37.25
2019-04-11T09:33:08.916Z,37.07
2019-04-11T09:34:31.965Z,36.82
2019-04-11T09:35:37.448Z,36.76
2019-04-11T09:37:01.591Z,36.62
2019-04-11T09:38:06.709Z,36.03
2019-04-11T09:39:19.148Z,36.03
2019-04-11T09:40:58.796Z,35.97
2019-04-11T09:42:23.008Z,35.90
2019-04-11T09:43:31.785Z,35.76
2019-04-11T09:44:53.063Z,35.71
2019-04-11T09:46:21.959Z,35.73
2019-04-11T09:48:08.522Z,35.81
2019-04-11T09:49:27.062Z,36.04
2019-04-11T09:50:53.258Z,36.33
2019-04-11T09:52:03.037Z,36.64
2019-04-11T09:53:08.247Z,36.72
2019-04-11T09:54:17.696Z,36.66
2019-04-11T09:55:33.255Z,36.64
2019-04-11T09:57:00.329Z,36.33
2019-04-11T09:58:11.536Z,35.45
2019-04-11T09:59:22.911Z,34.72
2019-04-11T10:00:47.395Z,34.47
2019-04-11T10:02:02.760Z,34.45
2019-04-11T10:03:15.716Z,34.47
2019-04-11T10:04:21.139Z,34.50
2019-04-11T10:05:36.751Z,34.61
2019-04-11T10:06:59.159Z,34.67
2019-04-11T10:08:39.658Z,34.80
2019-04-11T10:10:04.548Z,34.88
2019-04-11T10:11:30.320Z,34.93
2019-04-11T10:12:54.205Z,35.04
2019-04-11T10:14:05.361Z,35.31
2019-04-11T10:15:11.440Z,35.31
2019-04-11T10:16:35.827Z,35.27
2019-04-11T10:17:59.101Z,35.37
2019-04-11T10:19:11.731Z,35.43
2019-04-11T10:20:18.319Z,35.63
2019-04-11T10:21:24.717Z,35.78
2019-04-11T10:22:48.975Z,35.92
2019-04-11T10:24:18.594Z,35.97
2019-04-11T10:25:37.344Z,36.04
2019-04-11T10:26:46.271Z,36.09
2019-04-11T10:28:29.698Z,36.17
2019-04-11T10:29:57.021Z,36.20
2019-04-11T10:31:22.368Z,36.31
2019-04-11T10:32:30.933Z,36.33
2019-04-11T10:33:55.521Z,36.28
2019-04-11T10:35:26.132Z,36.31
2019-04-11T10:36:59.205Z,36.30
2019-04-11T10:38:05.708Z,36.15
2019-04-11T10:39:33.775Z,36.02
2019-04-11T10:41:04.180Z,35.89
2019-04-11T10:42:12.524Z,36.39
2019-04-11T10:43:18.433Z,35.77
2019-04-11T10:44:36.086Z,35.74
2019-04-11T10:46:03.209Z,35.73
2019-04-11T10:47:14.458Z,35.67
2019-04-11T10:48:32.603Z,35.59
2019-04-11T10:49:50.553Z,35.25
2019-04-11T10:51:13.048Z,35.25
2019-04-11T10:52:30.857Z,35.42
2019-04-11T10:53:35.980Z,35.44
2019-04-11T10:54:42.066Z,35.40
2019-04-11T10:56:10.614Z,35.44
2019-04-11T10:57:47.009Z,35.32
2019-04-11T11:00:15.721Z,35.33
2019-04-11T11:01:32.379Z,35.22
2019-04-11T11:03:09.591Z,35.22
2019-04-11T11:04:18.020Z,35.13
2019-04-11T11:05:24.295Z,35.04
2019-04-11T11:06:29.981Z,34.98
2019-04-11T11:07:35.106Z,34.72
2019-04-11T11:09:02.572Z,34.63
2019-04-11T11:10:20.250Z,34.59
2019-04-11T11:11:30.376Z,34.49
2019-04-11T11:12:41.513Z,34.44
2019-04-11T11:14:10.221Z,34.33
2019-04-11T11:15:19.840Z,34.21
2019-04-11T11:16:30.519Z,34.09
2019-04-11T11:18:35.102Z,34.05
2019-04-11T11:19:54.030Z,34.10
2019-04-11T11:20:55.741Z,34.13
2019-04-11T11:22:25.247Z,34.12
2019-04-11T11:23:49.335Z,34.08
2019-04-11T11:25:28.863Z,33.79
2019-04-11T11:26:35.691Z,33.83
2019-04-11T11:27:41.622Z,33.81
2019-04-11T11:29:08.417Z,33.79
2019-04-11T11:30:31.456Z,33.81
2019-04-11T11:31:42.794Z,33.86
2019-04-11T11:32:49.677Z,33.77
2019-04-11T11:33:56.548Z,33.82
2019-04-11T11:35:24.074Z,33.76
2019-04-11T11:36:44.091Z,33.63
2019-04-11T11:37:53.437Z,33.51
2019-04-11T11:39:17.510Z,33.43
2019-04-11T11:40:42.409Z,33.40
2019-04-11T11:42:06.236Z,33.38
2019-04-11T11:43:18.941Z,33.46
2019-04-11T11:44:27.219Z,33.50
2019-04-11T11:45:39.673Z,33.52
2019-04-11T11:47:06.855Z,33.45
2019-04-11T11:48:35.577Z,33.35
2019-04-11T11:49:51.700Z,33.29
2019-04-11T11:50:50.470Z,33.32
2019-04-11T11:52:15.174Z,33.33
2019-04-11T11:53:41.302Z,33.29
2019-04-11T11:54:49.635Z,33.05
2019-04-11T11:55:55.693Z,33.04
2019-04-11T11:57:04.633Z,32.91
2019-04-11T11:58:27.942Z,32.88
2019-04-11T11:59:40.736Z,32.82
2019-04-11T12:00:49.014Z,32.82
2019-04-11T12:02:06.342Z,32.83
2019-04-11T12:03:31.038Z,32.86
2019-04-11T12:05:07.866Z,32.88
2019-04-11T12:06:12.690Z,32.86
2019-04-11T12:07:20.920Z,32.89
2019-04-11T12:08:46.595Z,32.89
2019-04-11T12:10:09.655Z,32.81
2019-04-11T12:11:15.705Z,32.73
2019-04-11T12:12:25.639Z,32.70
2019-04-11T12:14:02.017Z,32.70
2019-04-11T12:15:45.548Z,32.64
2019-04-11T12:17:06.818Z,32.51
2019-04-11T12:18:32.937Z,32.60
2019-04-11T12:20:04.830Z,32.67
2019-04-11T12:21:05.628Z,32.66
2019-04-11T12:22:10.875Z,32.78
2019-04-11T12:23:43.838Z,32.87
2019-04-11T12:24:44.755Z,32.92
2019-04-11T12:25:49.889Z,32.89
2019-04-11T12:27:10.213Z,32.78
2019-04-11T12:28:27.602Z,32.78
2019-04-11T12:29:47.945Z,32.65
2019-04-11T12:30:57.962Z,32.64
2019-04-11T12:32:04.093Z,32.57
2019-04-11T12:33:37.440Z,32.53
2019-04-11T12:35:06.039Z,32.52
2019-04-11T12:36:15.038Z,32.53
2019-04-11T12:37:25.493Z,32.49
2019-04-11T12:38:55.594Z,32.50
2019-04-11T12:40:31.834Z,32.50
2019-04-11T12:42:05.214Z,32.55
2019-04-11T12:43:10.872Z,32.55
2019-04-11T12:44:49.949Z,32.62
2019-04-11T12:46:13.912Z,32.72
2019-04-11T12:47:33.944Z,32.81
2019-04-11T12:48:42.510Z,32.87
2019-04-11T12:50:21.956Z,32.87
2019-04-11T12:51:55.005Z,32.96
2019-04-11T12:53:17.559Z,33.04
2019-04-11T12:54:27.209Z,33.03
2019-04-11T12:55:56.995Z,32.98
2019-04-11T12:57:27.033Z,33.06
2019-04-11T12:58:36.073Z,33.00
2019-04-11T12:59:41.088Z,32.96
2019-04-11T13:01:17.400Z,32.87
2019-04-11T13:02:40.064Z,32.72
2019-04-11T13:04:18.143Z,32.58
2019-04-11T13:05:23.853Z,32.58
2019-04-11T13:06:46.681Z,32.53
2019-04-11T13:08:10.740Z,32.53
2019-04-11T13:09:27.803Z,32.56
2019-04-11T13:10:35.708Z,32.71
2019-04-11T13:11:42.700Z,33.06
2019-04-11T13:12:59.774Z,33.21
2019-04-11T13:14:23.160Z,33.36
2019-04-11T13:15:37.677Z,33.63
2019-04-11T13:16:44.122Z,33.82
2019-04-11T13:17:57.934Z,33.87
2019-04-11T13:19:17.090Z,33.92
2019-04-11T13:20:47.350Z,33.61
2019-04-11T13:22:07.756Z,33.57
2019-04-11T13:23:26.537Z,33.44
2019-04-11T13:25:02.499Z,33.40
2019-04-11T13:26:37.177Z,33.21
2019-04-11T13:27:48.838Z,33.08
2019-04-11T13:29:02.457Z,32.95
2019-04-11T13:30:28.102Z,32.92
2019-04-11T13:31:50.893Z,33.00
2019-04-11T13:32:57.920Z,33.18
2019-04-11T13:34:04.370Z,33.33
2019-04-11T13:35:29.071Z,33.47
2019-04-11T13:36:56.346Z,33.55
2019-04-11T13:38:13.092Z,33.65
2019-04-11T13:39:18.134Z,33.73
2019-04-11T13:40:40.671Z,33.74
2019-04-11T13:41:53.930Z,33.77
2019-04-11T13:43:16.593Z,33.71
2019-04-11T13:44:27.717Z,33.65
2019-04-11T13:45:33.116Z,33.50
2019-04-11T13:46:57.145Z,33.34
2019-04-11T13:48:20.174Z,33.34
2019-04-11T13:49:43.387Z,33.29
2019-04-11T13:50:48.907Z,33.26
2019-04-11T13:52:28.166Z,33.21
2019-04-11T13:54:01.118Z,33.15
2019-04-11T13:55:32.023Z,33.18
2019-04-11T13:56:52.091Z,33.14
2019-04-11T13:58:16.176Z,33.17
2019-04-11T13:59:46.585Z,33.13
2019-04-11T14:01:03.265Z,33.13
2019-04-11T14:02:16.218Z,33.10
2019-04-11T14:03:46.219Z,33.17
2019-04-11T14:04:51.189Z,33.13
2019-04-11T14:05:58.364Z,33.19
2019-04-11T14:07:03.443Z,33.19
2019-04-11T14:08:08.880Z,33.12
2019-04-11T14:09:39.062Z,33.00
2019-04-11T14:10:54.359Z,32.94
2019-04-11T14:12:00.362Z,32.92
2019-04-11T14:13:07.295Z,32.83
2019-04-11T14:14:15.511Z,32.85
2019-04-11T14:15:22.174Z,32.81
2019-04-11T14:16:27.280Z,32.63
2019-04-11T14:17:56.985Z,32.55
2019-04-11T14:19:12.389Z,32.59
2019-04-11T14:20:29.577Z,32.73
2019-04-11T14:21:32.703Z,32.75
2019-04-11T14:22:47.998Z,32.76
2019-04-11T14:24:18.513Z,32.81
2019-04-11T14:25:41.493Z,32.80
2019-04-11T14:26:49.088Z,32.73
2019-04-11T14:27:56.399Z,32.71
2019-04-11T14:29:19.434Z,32.88
2019-04-11T14:30:42.814Z,32.98
2019-04-11T14:31:57.449Z,33.10
2019-04-11T14:33:02.463Z,33.19
2019-04-11T14:34:13.632Z,33.21
2019-04-11T14:35:32.208Z,33.25
2019-04-11T14:36:48.543Z,33.19
2019-04-11T14:38:13.876Z,33.26
2019-04-11T14:39:19.899Z,33.32
2019-04-11T14:40:42.881Z,33.35
2019-04-11T14:42:05.957Z,33.35
2019-04-11T14:43:28.588Z,33.38
2019-04-11T14:44:34.672Z,33.43
2019-04-11T14:46:08.366Z,33.42
2019-04-11T14:47:41.660Z,33.45
2019-04-11T14:48:51.405Z,33.49
2019-04-11T14:50:01.502Z,33.46
2019-04-11T14:51:15.835Z,33.51
2019-04-11T14:52:35.926Z,33.52
2019-04-11T14:53:53.542Z,33.46
2019-04-11T14:55:01.182Z,33.38
2019-04-11T14:56:08.191Z,33.35
2019-04-11T14:57:29.687Z,33.36
2019-04-11T14:58:55.220Z,33.35
2019-04-11T15:00:13.045Z,33.31
2019-04-11T15:01:18.165Z,33.38
2019-04-11T15:02:41.323Z,33.40
2019-04-11T15:04:01.587Z,33.50
2019-04-11T15:05:21.872Z,33.47
2019-04-11T15:06:31.527Z,33.39
2019-04-11T15:07:37.274Z,33.36
2019-04-11T15:08:51.169Z,33.31
2019-04-11T15:10:07.952Z,33.08
2019-04-11T15:11:38.010Z,32.98
2019-04-11T15:12:42.989Z,33.01
2019-04-11T15:13:49.934Z,33.03
2019-04-11T15:15:19.985Z,33.08
2019-04-11T15:16:47.370Z,33.11
2019-04-11T15:17:58.127Z,33.17
2019-04-11T15:19:03.627Z,33.20
2019-04-11T15:20:42.395Z,33.23
2019-04-11T15:22:07.387Z,33.19
2019-04-11T15:23:24.459Z,33.22
2019-04-11T15:24:29.869Z,33.24
2019-04-11T15:25:55.256Z,33.21
2019-04-11T15:27:28.820Z,33.20
2019-04-11T15:28:51.656Z,33.21
2019-04-11T15:29:58.469Z,33.22
2019-04-11T15:31:11.664Z,33.22
2019-04-11T15:32:38.387Z,33.24
2019-04-11T15:33:48.881Z,33.32
2019-04-11T15:34:56.566Z,33.40
2019-04-11T15:36:01.972Z,33.47
2019-04-11T15:37:17.681Z,33.46
2019-04-11T15:38:48.251Z,33.42
2019-04-11T15:40:10.969Z,33.46
2019-04-11T15:41:16.052Z,33.54
2019-04-11T15:42:31.634Z,33.61
2019-04-11T15:43:54.404Z,33.59
2019-04-11T15:45:16.610Z,33.59
2019-04-11T15:46:26.196Z,33.60
2019-04-11T15:47:31.154Z,33.71
2019-04-11T15:49:01.451Z,33.72
2019-04-11T15:50:25.856Z,33.72
2019-04-11T15:51:35.334Z,33.71
2019-04-11T15:52:51.632Z,33.71
2019-04-11T15:54:28.340Z,33.73